createdAt,value
2018-07-07T00:00:12.374Z,16.60
2018-07-07T00:01:12.378Z,16.00
2018-07-07T00:02:12.377Z,16.90
2018-07-07T00:03:12.371Z,17.00
2018-07-07T00:04:12.371Z,15.90
2018-07-07T00:05:12.379Z,18.00
2018-07-07T00:06:12.373Z,17.50
2018-07-07T00:07:12.373Z,17.40
2018-07-07T00:08:12.373Z,15.40
2018-07-07T00:09:12.365Z,16.40
2018-07-07T00:10:12.366Z,16.20
2018-07-07T00:11:12.365Z,18.30
2018-07-07T00:12:12.362Z,16.90
2018-07-07T00:13:12.370Z,17.10
2018-07-07T00:14:12.366Z,15.30
2018-07-07T00:15:12.365Z,15.40
2018-07-07T00:16:12.362Z,16.10
2018-07-07T00:17:12.357Z,15.90
2018-07-07T00:18:12.356Z,15.30
2018-07-07T00:19:12.360Z,15.50
2018-07-07T00:20:12.358Z,15.30
2018-07-07T00:21:12.354Z,15.60
2018-07-07T00:22:12.352Z,15.40
2018-07-07T00:23:12.350Z,15.40
2018-07-07T00:24:12.349Z,15.80
2018-07-07T00:25:12.353Z,15.30
2018-07-07T00:26:12.353Z,15.20
2018-07-07T00:27:12.359Z,15.50
2018-07-07T00:28:12.350Z,16.00
2018-07-07T00:29:12.343Z,15.40
2018-07-07T00:30:12.342Z,16.80
2018-07-07T00:31:12.344Z,15.10
2018-07-07T00:32:12.339Z,17.00
2018-07-07T00:33:12.344Z,16.50
2018-07-07T00:34:12.341Z,14.90
2018-07-07T00:35:12.340Z,15.60
2018-07-07T00:36:12.335Z,16.30
2018-07-07T00:37:12.338Z,16.70
2018-07-07T00:38:12.337Z,15.60
2018-07-07T00:39:12.340Z,17.40
2018-07-07T00:40:12.336Z,15.20
2018-07-07T00:41:12.329Z,16.10
2018-07-07T00:42:12.329Z,16.40
2018-07-07T00:43:12.328Z,16.20
2018-07-07T00:44:12.325Z,17.20
2018-07-07T00:45:12.331Z,17.00
2018-07-07T00:46:12.330Z,15.80
2018-07-07T00:47:12.328Z,17.40
2018-07-07T00:48:12.324Z,15.80
2018-07-07T00:49:12.319Z,17.60
2018-07-07T00:50:12.322Z,16.90
2018-07-07T00:51:12.321Z,14.80
2018-07-07T00:52:12.319Z,14.40
2018-07-07T00:53:12.315Z,16.00
2018-07-07T00:54:12.317Z,15.50
2018-07-07T00:55:12.312Z,15.80
2018-07-07T00:56:12.311Z,14.20
2018-07-07T00:57:12.314Z,14.70
2018-07-07T00:58:12.313Z,14.60
2018-07-07T00:59:12.313Z,15.20
2018-07-07T01:00:12.310Z,14.80
2018-07-07T01:01:12.305Z,15.30
2018-07-07T01:02:12.303Z,14.80
2018-07-07T01:03:12.301Z,14.30
2018-07-07T01:04:12.300Z,14.60
2018-07-07T01:05:12.302Z,15.20
2018-07-07T01:06:12.302Z,14.20
2018-07-07T01:07:12.295Z,14.50
2018-07-07T01:08:12.294Z,14.00
2018-07-07T01:09:12.298Z,15.70
2018-07-07T01:10:12.297Z,15.60
2018-07-07T01:11:12.296Z,14.70
2018-07-07T01:12:12.293Z,15.00
2018-07-07T01:13:12.286Z,14.70
2018-07-07T01:14:12.289Z,15.20
2018-07-07T01:15:12.285Z,15.00
2018-07-07T01:16:12.282Z,15.60
2018-07-07T01:17:12.286Z,15.40
2018-07-07T01:18:12.284Z,15.80
2018-07-07T01:19:12.289Z,16.40
2018-07-07T01:20:12.279Z,14.50
2018-07-07T01:21:12.275Z,14.10
2018-07-07T01:22:12.273Z,14.80
2018-07-07T01:23:12.277Z,15.70
2018-07-07T01:24:12.275Z,14.90
2018-07-07T01:25:12.270Z,14.50
2018-07-07T01:26:12.267Z,15.30
2018-07-07T01:27:12.267Z,14.30
2018-07-07T01:28:12.263Z,14.90
2018-07-07T01:29:12.267Z,13.90
2018-07-07T01:30:12.269Z,14.00
2018-07-07T01:31:12.265Z,14.50
2018-07-07T01:32:12.264Z,15.60
2018-07-07T01:33:12.256Z,14.00
2018-07-07T01:34:12.255Z,13.50
2018-07-07T01:35:12.253Z,14.50
2018-07-07T01:36:12.253Z,13.60
2018-07-07T01:37:12.256Z,15.00
2018-07-07T01:38:12.261Z,15.30
2018-07-07T01:39:12.247Z,14.60
2018-07-07T01:40:12.245Z,14.70
2018-07-07T01:41:12.248Z,15.20
2018-07-07T01:42:12.248Z,14.40
2018-07-07T01:43:12.245Z,13.80
2018-07-07T01:44:12.243Z,14.60
2018-07-07T01:45:12.238Z,14.90
2018-07-07T01:46:12.235Z,14.00
2018-07-07T01:47:12.234Z,14.20
2018-07-07T01:48:12.231Z,13.50
2018-07-07T01:49:12.235Z,14.00
2018-07-07T01:50:12.233Z,14.50
2018-07-07T01:51:12.232Z,13.80
2018-07-07T01:52:12.231Z,13.50
2018-07-07T01:53:12.223Z,14.50
2018-07-07T01:54:12.223Z,13.70
2018-07-07T01:55:12.225Z,13.80
2018-07-07T01:56:12.223Z,14.60
2018-07-07T01:57:12.217Z,13.20
2018-07-07T01:58:12.215Z,14.40
2018-07-07T01:59:12.214Z,14.40
2018-07-07T02:00:12.213Z,14.10
2018-07-07T02:01:12.216Z,13.60
2018-07-07T02:02:12.213Z,13.70
2018-07-07T02:03:12.217Z,13.20
2018-07-07T02:04:12.209Z,13.40
2018-07-07T02:05:12.204Z,13.30
2018-07-07T02:06:12.203Z,13.60
2018-07-07T02:07:12.202Z,13.50
2018-07-07T02:08:12.201Z,14.00
2018-07-07T02:09:12.203Z,14.50
2018-07-07T02:10:12.203Z,14.10
2018-07-07T02:11:12.197Z,13.20
2018-07-07T02:12:12.195Z,13.70
2018-07-07T02:13:12.198Z,13.80
2018-07-07T02:14:12.198Z,13.10
2018-07-07T02:15:12.199Z,14.00
2018-07-07T02:16:12.193Z,13.10
2018-07-07T02:17:12.186Z,14.00
2018-07-07T02:18:12.186Z,13.20
2018-07-07T02:19:12.185Z,12.90
2018-07-07T02:20:12.182Z,13.00
2018-07-07T02:21:12.186Z,13.40
2018-07-07T02:22:12.184Z,13.40
2018-07-07T02:23:12.183Z,13.10
2018-07-07T02:24:12.181Z,13.90
2018-07-07T02:25:12.176Z,13.90
2018-07-07T02:26:12.177Z,13.40
2018-07-07T02:27:12.179Z,12.70
2018-07-07T02:28:12.179Z,13.60
2018-07-07T02:29:12.171Z,12.60
2018-07-07T02:30:12.169Z,13.20
2018-07-07T02:31:12.167Z,13.80
2018-07-07T02:32:12.167Z,13.50
2018-07-07T02:33:12.169Z,13.00
2018-07-07T02:34:12.169Z,13.80
2018-07-07T02:35:12.167Z,13.10
2018-07-07T02:36:12.165Z,13.20
2018-07-07T02:37:12.159Z,13.60
2018-07-07T02:38:12.158Z,13.50
2018-07-07T02:39:12.156Z,13.60
2018-07-07T02:40:12.154Z,14.80
2018-07-07T02:41:12.158Z,14.70
2018-07-07T02:42:12.158Z,13.90
2018-07-07T02:43:12.152Z,14.20
2018-07-07T02:44:12.148Z,13.50
2018-07-07T02:45:12.153Z,13.80
2018-07-07T02:46:12.172Z,12.90
2018-07-07T02:47:12.150Z,12.90
2018-07-07T02:48:12.150Z,13.30
2018-07-07T02:49:12.142Z,14.20
2018-07-07T02:50:12.141Z,13.60
2018-07-07T02:51:12.140Z,14.50
2018-07-07T02:52:12.140Z,14.40
2018-07-07T02:53:12.143Z,13.60
2018-07-07T02:54:12.141Z,13.50
2018-07-07T02:55:12.144Z,13.60
2018-07-07T02:56:12.140Z,13.30
2018-07-07T02:57:12.132Z,13.50
2018-07-07T02:58:12.131Z,13.80
2018-07-07T02:59:12.136Z,13.30
2018-07-07T03:00:12.132Z,14.40
2018-07-07T03:01:12.127Z,13.70
2018-07-07T03:02:12.126Z,14.10
2018-07-07T03:03:12.151Z,13.20
2018-07-07T03:04:12.124Z,13.00
2018-07-07T03:05:12.130Z,13.20
2018-07-07T03:06:12.131Z,13.20
2018-07-07T03:07:12.126Z,13.20
2018-07-07T03:08:12.124Z,13.30
2018-07-07T03:09:12.118Z,12.90
2018-07-07T03:10:12.117Z,12.40
2018-07-07T03:11:12.116Z,12.70
2018-07-07T03:12:12.114Z,13.20
2018-07-07T03:13:12.117Z,13.10
2018-07-07T03:14:12.121Z,12.50
2018-07-07T03:15:12.112Z,12.80
2018-07-07T03:16:12.109Z,13.00
2018-07-07T03:17:12.112Z,12.70
2018-07-07T03:18:12.111Z,16.10
2018-07-07T03:19:12.112Z,12.40
2018-07-07T03:20:12.109Z,13.40
2018-07-07T03:21:12.104Z,13.20
2018-07-07T03:22:12.103Z,12.60
2018-07-07T03:23:12.102Z,13.70
2018-07-07T03:24:12.099Z,12.00
2018-07-07T03:25:12.104Z,12.30
2018-07-07T03:26:12.105Z,12.10
2018-07-07T03:27:12.101Z,12.70
2018-07-07T03:28:12.100Z,12.50
2018-07-07T03:29:12.095Z,12.10
2018-07-07T03:30:12.095Z,13.20
2018-07-07T03:31:12.097Z,13.60
2018-07-07T03:32:12.095Z,13.30
2018-07-07T03:33:12.089Z,11.80
2018-07-07T03:34:12.089Z,11.90
2018-07-07T03:35:12.092Z,13.50
2018-07-07T03:36:12.090Z,12.00
2018-07-07T03:37:12.089Z,11.90
2018-07-07T03:38:12.090Z,11.50
2018-07-07T03:39:12.088Z,12.20
2018-07-07T03:40:12.086Z,12.10
2018-07-07T03:41:12.081Z,11.20
2018-07-07T03:42:12.103Z,11.50
2018-07-07T03:43:12.078Z,11.60
2018-07-07T03:44:12.077Z,11.30
2018-07-07T03:45:12.081Z,11.70
2018-07-07T03:46:12.087Z,11.90
2018-07-07T03:47:12.075Z,13.80
2018-07-07T03:48:12.072Z,12.70
2018-07-07T03:49:12.124Z,12.10
2018-07-07T03:50:12.076Z,11.20
2018-07-07T03:51:12.073Z,11.40
2018-07-07T03:52:12.073Z,11.40
2018-07-07T03:53:12.067Z,13.60
2018-07-07T03:54:12.066Z,12.20
2018-07-07T03:55:12.065Z,11.40
2018-07-07T03:56:12.064Z,11.40
2018-07-07T03:57:12.066Z,11.30
2018-07-07T03:58:12.065Z,11.10
2018-07-07T03:59:12.066Z,12.20
2018-07-07T04:00:12.063Z,11.40
2018-07-07T04:01:12.057Z,11.90
2018-07-07T04:02:12.056Z,11.50
2018-07-07T04:03:12.062Z,12.50
2018-07-07T04:04:12.058Z,11.70
2018-07-07T04:05:12.053Z,11.70
2018-07-07T04:06:12.052Z,13.00
2018-07-07T04:07:12.059Z,13.20
2018-07-07T04:08:12.051Z,11.60
2018-07-07T04:09:12.052Z,12.50
2018-07-07T04:10:12.052Z,12.10
2018-07-07T04:11:12.051Z,11.60
2018-07-07T04:12:12.050Z,12.20
2018-07-07T04:13:12.042Z,12.40
2018-07-07T04:14:12.041Z,12.60
2018-07-07T04:15:12.040Z,12.40
2018-07-07T04:16:12.039Z,12.20
2018-07-07T04:17:12.043Z,12.40
2018-07-07T04:18:12.042Z,12.70
2018-07-07T04:19:12.036Z,13.10
2018-07-07T04:20:12.107Z,12.00
2018-07-07T04:21:12.038Z,12.30
2018-07-07T04:22:12.036Z,12.70
2018-07-07T04:23:12.034Z,12.60
2018-07-07T04:24:12.031Z,12.40
2018-07-07T04:25:12.026Z,13.40
2018-07-07T04:26:12.025Z,13.40
2018-07-07T04:27:12.023Z,12.20
2018-07-07T04:28:12.021Z,12.30
2018-07-07T04:29:12.024Z,12.40
2018-07-07T04:30:12.023Z,12.00
2018-07-07T04:31:12.026Z,12.30
2018-07-07T04:32:12.021Z,11.90
2018-07-07T04:33:12.016Z,12.20
2018-07-07T04:34:12.014Z,12.40
2018-07-07T04:39:12.045Z,12.70
2018-07-07T04:40:12.004Z,12.50
2018-07-07T04:41:12.008Z,13.50
2018-07-07T04:42:12.006Z,12.10
2018-07-07T04:43:12.001Z,11.80
2018-07-07T04:44:11.999Z,11.50
2018-07-07T04:45:12.003Z,12.00
2018-07-07T04:46:12.003Z,13.00
2018-07-07T04:47:11.999Z,11.70
2018-07-07T04:48:12.000Z,11.50
2018-07-07T04:49:11.992Z,11.60
2018-07-07T04:50:11.991Z,11.60
2018-07-07T04:51:11.995Z,12.80
2018-07-07T04:52:11.994Z,11.60
2018-07-07T04:53:11.987Z,11.10
2018-07-07T04:54:11.986Z,10.80
2018-07-07T04:55:11.985Z,11.10
2018-07-07T04:56:11.983Z,11.10
2018-07-07T04:57:11.988Z,10.90
2018-07-07T04:58:11.987Z,11.30
2018-07-07T04:59:11.988Z,12.10
2018-07-07T05:00:11.983Z,11.80
2018-07-07T05:01:11.977Z,11.60
2018-07-07T05:02:11.977Z,10.50
2018-07-07T05:03:11.975Z,11.40
2018-07-07T05:04:11.974Z,10.90
2018-07-07T05:05:11.977Z,11.00
2018-07-07T05:06:11.977Z,11.50
2018-07-07T05:07:11.972Z,11.10
2018-07-07T05:08:11.968Z,11.40
2018-07-07T05:09:11.974Z,10.90
2018-07-07T05:10:11.972Z,11.20
2018-07-07T05:11:11.973Z,10.90
2018-07-07T05:12:11.972Z,10.80
2018-07-07T05:13:11.965Z,10.20
2018-07-07T05:14:11.966Z,10.00
2018-07-07T05:15:11.963Z,10.40
2018-07-07T05:16:11.963Z,10.80
2018-07-07T05:17:12.025Z,11.60
2018-07-07T05:18:11.968Z,10.60
2018-07-07T05:19:11.970Z,10.10
2018-07-07T05:20:11.966Z,10.50
2018-07-07T05:21:11.961Z,9.10
2018-07-07T05:22:11.962Z,8.50
2018-07-07T05:23:11.965Z,8.30
2018-07-07T05:24:11.966Z,10.40
2018-07-07T05:25:11.962Z,9.20
2018-07-07T05:26:11.964Z,10.30
2018-07-07T05:27:11.964Z,10.70
2018-07-07T05:28:11.963Z,10.20
2018-07-07T05:29:11.968Z,10.70
2018-07-07T05:30:11.972Z,11.00
2018-07-07T05:31:11.972Z,10.20
2018-07-07T05:32:12.034Z,10.30
2018-07-07T05:33:11.970Z,10.50
2018-07-07T05:34:11.972Z,10.30
2018-07-07T05:35:11.974Z,11.80
2018-07-07T05:36:11.976Z,11.40
2018-07-07T05:37:11.989Z,11.10
2018-07-07T05:38:11.987Z,12.50
2018-07-07T05:39:11.986Z,11.70
2018-07-07T05:40:11.993Z,12.90
2018-07-07T05:41:11.998Z,11.60
2018-07-07T05:42:12.002Z,12.00
2018-07-07T05:43:12.006Z,12.30
2018-07-07T05:44:12.009Z,11.70
2018-07-07T05:45:12.009Z,11.30
2018-07-07T05:46:12.012Z,10.90
2018-07-07T05:47:12.018Z,11.10
2018-07-07T05:48:12.021Z,10.80
2018-07-07T05:49:12.029Z,11.10
2018-07-07T05:50:12.036Z,11.20
2018-07-07T05:51:12.041Z,10.50
2018-07-07T05:52:12.045Z,10.50
2018-07-07T05:53:12.044Z,10.10
2018-07-07T05:54:12.051Z,10.10
2018-07-07T05:55:12.061Z,10.00
2018-07-07T05:56:12.065Z,9.60
2018-07-07T05:57:12.066Z,9.50
2018-07-07T05:58:12.072Z,9.60
2018-07-07T05:59:12.077Z,9.70
2018-07-07T06:00:12.082Z,10.30
2018-07-07T06:01:12.093Z,10.20
2018-07-07T06:02:12.099Z,11.00
2018-07-07T06:03:12.106Z,10.90
2018-07-07T06:04:12.109Z,11.00
2018-07-07T06:05:12.111Z,10.70
2018-07-07T06:06:12.117Z,10.80
2018-07-07T06:07:12.123Z,11.40
2018-07-07T06:08:12.128Z,11.50
2018-07-07T06:09:12.139Z,11.10
2018-07-07T06:10:12.145Z,10.60
2018-07-07T06:11:12.147Z,10.10
2018-07-07T06:12:12.150Z,10.00
2018-07-07T06:13:12.162Z,10.10
2018-07-07T06:14:12.167Z,10.10
2018-07-07T06:15:12.173Z,9.50
2018-07-07T06:16:12.177Z,8.30
2018-07-07T06:17:12.179Z,7.50
2018-07-07T06:18:12.197Z,8.80
2018-07-07T06:19:12.193Z,8.60
2018-07-07T06:20:12.199Z,8.70
2018-07-07T06:21:12.208Z,12.30
2018-07-07T06:22:12.215Z,8.80
2018-07-07T06:23:12.223Z,12.00
2018-07-07T06:24:12.232Z,6.90
2018-07-07T06:25:12.233Z,6.70
2018-07-07T06:26:12.240Z,7.70
2018-07-07T06:27:12.253Z,8.10
2018-07-07T06:28:12.260Z,6.70
2018-07-07T06:29:12.263Z,7.10
2018-07-07T06:30:12.272Z,6.20
2018-07-07T06:31:12.285Z,6.30
2018-07-07T06:32:12.287Z,6.80
2018-07-07T06:33:12.301Z,6.10
2018-07-07T06:34:12.310Z,5.20
2018-07-07T06:35:12.370Z,5.10
2018-07-07T06:36:12.326Z,5.20
2018-07-07T06:37:12.346Z,4.70
2018-07-07T06:38:12.342Z,5.80
2018-07-07T06:39:12.352Z,4.60
2018-07-07T06:40:12.361Z,4.90
2018-07-07T06:41:12.375Z,5.90
2018-07-07T06:42:12.386Z,4.80
2018-07-07T06:43:12.391Z,5.50
2018-07-07T06:44:12.400Z,4.90
2018-07-07T06:45:12.416Z,5.10
2018-07-07T06:46:12.427Z,4.70
2018-07-07T06:47:12.437Z,5.10
2018-07-07T06:48:12.451Z,4.60
2018-07-07T06:49:12.453Z,4.60
2018-07-07T06:50:12.463Z,4.60
2018-07-07T06:51:12.474Z,4.30
2018-07-07T06:52:12.485Z,4.50
2018-07-07T06:53:12.501Z,4.40
2018-07-07T06:54:12.511Z,4.00
2018-07-07T06:55:12.523Z,3.90
2018-07-07T06:56:12.532Z,4.80
2018-07-07T06:57:12.541Z,4.30
2018-07-07T06:58:12.551Z,4.00
2018-07-07T06:59:12.568Z,5.20
2018-07-07T07:00:12.579Z,4.30
2018-07-07T07:01:12.587Z,3.90
2018-07-07T07:02:12.602Z,3.90
2018-07-07T07:03:12.611Z,3.90
2018-07-07T07:04:12.623Z,3.90
2018-07-07T07:05:12.637Z,4.00
2018-07-07T07:06:12.651Z,4.10
2018-07-07T07:07:12.663Z,4.30
2018-07-07T07:08:12.676Z,4.10
2018-07-07T07:09:12.691Z,4.60
2018-07-07T07:10:12.694Z,4.00
2018-07-07T07:11:12.708Z,4.20
2018-07-07T07:12:12.720Z,4.50
2018-07-07T07:13:12.736Z,5.10
2018-07-07T07:14:12.748Z,4.80
2018-07-07T07:15:12.756Z,4.10
2018-07-07T07:16:12.768Z,4.00
2018-07-07T07:17:12.785Z,4.30
2018-07-07T07:18:12.798Z,4.00
2018-07-07T07:19:12.813Z,4.10
2018-07-07T07:20:12.825Z,3.70
2018-07-07T07:21:12.834Z,3.90
2018-07-07T07:22:12.846Z,5.20
2018-07-07T07:23:12.860Z,3.70
2018-07-07T07:24:12.872Z,3.50
2018-07-07T07:25:12.891Z,3.90
2018-07-07T07:26:13.054Z,3.50
2018-07-07T07:27:12.918Z,3.90
2018-07-07T07:28:12.932Z,3.90
2018-07-07T07:29:12.940Z,3.90
2018-07-07T07:30:12.957Z,3.70
2018-07-07T07:31:12.972Z,3.70
2018-07-07T07:32:12.984Z,3.90
2018-07-07T07:33:12.994Z,3.60
2018-07-07T07:34:13.009Z,3.40
2018-07-07T07:35:13.027Z,3.30
2018-07-07T07:36:13.036Z,3.60
2018-07-07T07:37:13.058Z,3.60
2018-07-07T07:38:13.069Z,3.70
2018-07-07T07:39:13.083Z,3.70
2018-07-07T07:40:13.097Z,3.60
2018-07-07T07:41:13.107Z,3.40
2018-07-07T07:42:13.121Z,3.30
2018-07-07T07:43:13.158Z,3.40
2018-07-07T07:44:13.150Z,3.20
2018-07-07T07:45:13.169Z,3.30
2018-07-07T07:46:13.184Z,3.60
2018-07-07T07:47:13.194Z,3.30
2018-07-07T07:48:13.207Z,3.70
2018-07-07T07:49:13.227Z,3.50
2018-07-07T07:50:13.242Z,3.30
2018-07-07T07:51:13.260Z,3.40
2018-07-07T07:52:13.271Z,3.10
2018-07-07T07:53:13.282Z,3.30
2018-07-07T07:54:13.298Z,3.20
2018-07-07T07:55:13.312Z,3.20
2018-07-07T07:56:13.328Z,3.40
2018-07-07T07:57:13.350Z,3.10
2018-07-07T07:58:13.363Z,3.40
2018-07-07T07:59:13.379Z,3.30
2018-07-07T08:00:13.394Z,3.10
2018-07-07T08:01:13.404Z,2.90
2018-07-07T08:02:13.422Z,2.50
2018-07-07T08:03:13.442Z,2.50
2018-07-07T08:04:13.456Z,2.60
2018-07-07T08:05:13.466Z,2.60
2018-07-07T08:06:13.483Z,2.50
2018-07-07T08:07:13.498Z,2.50
2018-07-07T08:08:13.514Z,2.30
2018-07-07T08:09:13.535Z,2.40
2018-07-07T08:10:13.550Z,2.40
2018-07-07T08:11:13.566Z,2.50
2018-07-07T08:12:13.580Z,2.30
2018-07-07T08:13:13.597Z,2.30
2018-07-07T08:14:13.681Z,2.40
2018-07-07T08:15:13.627Z,2.20
2018-07-07T08:16:13.643Z,2.30
2018-07-07T08:17:13.663Z,2.40
2018-07-07T08:18:13.682Z,2.50
2018-07-07T08:19:13.695Z,2.60
2018-07-07T08:20:13.709Z,2.60
2018-07-07T08:21:13.733Z,2.40
2018-07-07T08:22:13.746Z,2.40
2018-07-07T08:23:13.769Z,2.20
2018-07-07T08:24:13.782Z,2.80
2018-07-07T08:25:13.793Z,3.00
2018-07-07T08:26:13.810Z,2.60
2018-07-07T08:27:13.826Z,2.50
2018-07-07T08:28:13.842Z,3.10
2018-07-07T08:29:13.864Z,2.30
2018-07-07T08:30:13.880Z,2.30
2018-07-07T08:31:13.900Z,3.50
2018-07-07T08:32:13.915Z,2.40
2018-07-07T08:33:13.928Z,2.20
2018-07-07T08:34:13.946Z,2.40
2018-07-07T08:35:13.967Z,2.30
2018-07-07T08:36:13.984Z,2.20
2018-07-07T08:37:13.996Z,2.30
2018-07-07T08:38:14.013Z,2.30
2018-07-07T08:39:14.031Z,2.10
2018-07-07T08:40:14.048Z,2.20
2018-07-07T08:41:14.070Z,2.20
2018-07-07T08:42:14.138Z,2.30
2018-07-07T08:43:14.106Z,2.30
2018-07-07T08:44:14.126Z,2.30
2018-07-07T08:45:14.139Z,2.30
2018-07-07T08:46:14.161Z,2.40
2018-07-07T08:47:14.177Z,2.30
2018-07-07T08:48:14.194Z,2.40
2018-07-07T08:49:14.228Z,2.50
2018-07-07T08:50:14.238Z,2.50
2018-07-07T08:51:14.254Z,2.40
2018-07-07T08:52:14.274Z,2.60
2018-07-07T08:53:14.298Z,2.40
2018-07-07T08:54:14.317Z,2.40
2018-07-07T08:55:14.338Z,2.50
2018-07-07T08:56:14.358Z,2.50
2018-07-07T08:57:14.372Z,2.60
2018-07-07T08:58:14.391Z,2.50
2018-07-07T08:59:14.411Z,2.70
2018-07-07T09:00:14.430Z,2.50
2018-07-07T09:01:14.456Z,2.40
2018-07-07T09:02:14.515Z,2.50
2018-07-07T09:03:14.496Z,2.40
2018-07-07T09:04:14.514Z,2.70
2018-07-07T09:05:14.531Z,2.60
2018-07-07T09:06:14.551Z,2.70
2018-07-07T09:07:14.576Z,2.60
2018-07-07T09:08:14.598Z,3.30
2018-07-07T09:09:14.611Z,2.30
2018-07-07T09:10:14.632Z,2.40
2018-07-07T09:11:14.653Z,2.40
2018-07-07T09:12:14.672Z,2.50
2018-07-07T09:13:14.699Z,2.50
2018-07-07T09:14:14.735Z,2.40
2018-07-07T09:15:14.741Z,2.60
2018-07-07T09:16:14.761Z,2.70
2018-07-07T09:17:14.778Z,4.80
2018-07-07T09:18:14.799Z,2.40
2018-07-07T09:19:14.824Z,2.50
2018-07-07T09:20:14.843Z,2.70
2018-07-07T09:21:14.899Z,2.60
2018-07-07T09:22:14.893Z,2.70
2018-07-07T09:23:14.908Z,2.60
2018-07-07T09:24:14.928Z,2.40
2018-07-07T09:25:14.955Z,2.80
2018-07-07T09:26:14.977Z,2.90
2018-07-07T09:27:14.997Z,2.70
2018-07-07T09:28:15.017Z,3.50
2018-07-07T09:29:15.033Z,2.90
2018-07-07T09:30:15.055Z,3.40
2018-07-07T09:31:15.074Z,2.60
2018-07-07T09:32:15.094Z,2.60
2018-07-07T09:33:15.118Z,2.50
2018-07-07T09:34:15.138Z,2.40
2018-07-07T09:35:15.157Z,2.80
2018-07-07T09:36:15.177Z,4.90
2018-07-07T09:37:15.191Z,3.20
2018-07-07T09:38:15.211Z,3.50
2018-07-07T09:39:15.235Z,2.90
2018-07-07T09:40:15.252Z,3.30
2018-07-07T09:41:15.269Z,3.40
2018-07-07T09:42:15.285Z,3.10
2018-07-07T09:43:15.305Z,3.10
2018-07-07T09:44:15.323Z,3.40
2018-07-07T09:45:15.347Z,3.10
2018-07-07T09:46:15.366Z,3.00
2018-07-07T09:47:15.386Z,3.10
2018-07-07T09:48:15.407Z,3.20
2018-07-07T09:49:15.420Z,2.90
2018-07-07T09:50:15.439Z,3.00
2018-07-07T09:51:15.460Z,3.20
2018-07-07T09:52:15.480Z,3.30
2018-07-07T09:53:15.503Z,3.30
2018-07-07T09:54:15.525Z,2.90
2018-07-07T09:55:15.540Z,3.00
2018-07-07T09:56:15.642Z,3.20
2018-07-07T09:57:15.631Z,3.30
2018-07-07T09:58:15.606Z,3.20
2018-07-07T09:59:15.626Z,3.60
2018-07-07T10:00:15.645Z,3.10
2018-07-07T10:01:15.662Z,3.30
2018-07-07T10:02:15.683Z,3.50
2018-07-07T10:03:15.706Z,3.80
2018-07-07T10:04:15.723Z,3.90
2018-07-07T10:05:15.747Z,3.80
2018-07-07T10:06:15.768Z,4.10
2018-07-07T10:07:15.788Z,4.00
2018-07-07T10:08:15.805Z,3.40
2018-07-07T10:09:15.820Z,3.90
2018-07-07T10:10:15.841Z,3.80
2018-07-07T10:11:15.864Z,3.60
2018-07-07T10:12:15.884Z,3.40
2018-07-07T10:13:15.899Z,3.70
2018-07-07T10:14:15.918Z,4.00
2018-07-07T10:15:15.938Z,4.10
2018-07-07T10:16:15.956Z,4.00
2018-07-07T10:17:15.980Z,4.10
2018-07-07T10:18:16.000Z,3.80
2018-07-07T10:19:16.020Z,4.00
2018-07-07T10:20:16.039Z,4.10
2018-07-07T10:21:16.053Z,4.00
2018-07-07T10:22:16.072Z,4.60
2018-07-07T10:23:16.091Z,3.90
2018-07-07T10:24:16.109Z,3.50
2018-07-07T10:25:16.133Z,3.70
2018-07-07T10:26:16.183Z,4.10
2018-07-07T10:27:16.168Z,4.10
2018-07-07T10:28:16.187Z,4.20
2018-07-07T10:29:16.211Z,4.00
2018-07-07T10:30:16.233Z,4.00
2018-07-07T10:31:16.250Z,4.00
2018-07-07T10:32:16.269Z,3.80
2018-07-07T10:33:16.285Z,2.80
2018-07-07T10:34:16.304Z,3.10
2018-07-07T10:35:16.325Z,3.10
2018-07-07T10:36:16.344Z,3.20
2018-07-07T10:37:16.371Z,3.40
2018-07-07T10:38:16.410Z,3.70
2018-07-07T10:39:16.411Z,4.10
2018-07-07T10:40:16.430Z,3.20
2018-07-07T10:41:16.448Z,3.50
2018-07-07T10:42:16.469Z,3.90
2018-07-07T10:43:16.494Z,4.20
2018-07-07T10:44:16.514Z,4.80
2018-07-07T10:45:16.530Z,3.90
2018-07-07T10:46:16.557Z,4.40
2018-07-07T10:47:16.583Z,5.10
2018-07-07T10:48:16.592Z,4.50
2018-07-07T10:49:16.617Z,4.30
2018-07-07T10:50:16.637Z,4.30
2018-07-07T10:51:16.658Z,3.90
2018-07-07T10:52:16.676Z,4.60
2018-07-07T10:53:16.694Z,4.30
2018-07-07T10:54:16.712Z,3.90
2018-07-07T10:55:16.731Z,3.80
2018-07-07T10:56:16.750Z,4.10
2018-07-07T10:57:16.775Z,3.80
2018-07-07T10:58:16.796Z,3.30
2018-07-07T10:59:16.811Z,3.60
2018-07-07T11:00:16.832Z,3.80
2018-07-07T11:01:16.856Z,3.60
2018-07-07T11:02:16.877Z,3.70
2018-07-07T11:03:16.899Z,3.70
2018-07-07T11:04:17.014Z,3.80
2018-07-07T11:05:16.932Z,4.10
2018-07-07T11:06:16.953Z,4.30
2018-07-07T11:07:16.973Z,4.50
2018-07-07T11:08:16.996Z,4.40
2018-07-07T11:09:17.016Z,4.40
2018-07-07T11:10:17.036Z,4.50
2018-07-07T11:11:17.056Z,4.00
2018-07-07T11:12:17.077Z,4.50
2018-07-07T11:13:17.091Z,4.40
2018-07-07T11:14:17.112Z,4.50
2018-07-07T11:15:17.138Z,5.00
2018-07-07T11:16:17.155Z,4.60
2018-07-07T11:17:17.170Z,4.80
2018-07-07T11:18:17.191Z,4.90
2018-07-07T11:19:17.209Z,10.30
2018-07-07T11:20:17.227Z,6.80
2018-07-07T11:21:17.250Z,5.50
2018-07-07T11:22:17.271Z,5.10
2018-07-07T11:23:17.289Z,5.40
2018-07-07T11:24:17.307Z,5.90
2018-07-07T11:25:17.322Z,6.10
2018-07-07T11:26:17.340Z,6.60
2018-07-07T11:27:17.359Z,6.60
2018-07-07T11:28:17.374Z,6.90
2018-07-07T11:29:17.396Z,7.60
2018-07-07T11:30:17.414Z,7.30
2018-07-07T11:31:17.424Z,7.40
2018-07-07T11:32:17.439Z,7.70
2018-07-07T11:33:17.459Z,8.00
2018-07-07T11:34:17.475Z,7.80
2018-07-07T11:35:17.490Z,8.50
2018-07-07T11:36:17.564Z,8.80
2018-07-07T11:37:17.512Z,8.70
2018-07-07T11:38:17.526Z,9.80
2018-07-07T11:39:17.540Z,9.30
2018-07-07T11:40:17.552Z,9.50
2018-07-07T11:41:17.570Z,9.80
2018-07-07T11:42:17.621Z,9.40
2018-07-07T11:43:17.597Z,9.00
2018-07-07T11:44:17.650Z,9.20
2018-07-07T11:45:17.613Z,9.30
2018-07-07T11:46:17.626Z,9.20
2018-07-07T11:47:17.644Z,9.60
2018-07-07T11:48:17.652Z,9.60
2018-07-07T11:49:17.658Z,9.80
2018-07-07T11:50:17.698Z,9.30
2018-07-07T11:51:17.679Z,9.10
2018-07-07T11:52:17.688Z,9.10
2018-07-07T11:53:17.702Z,9.20
2018-07-07T11:54:17.711Z,9.30
2018-07-07T11:55:17.721Z,9.30
2018-07-07T11:56:17.729Z,9.40
2018-07-07T11:57:17.757Z,9.60
2018-07-07T11:58:17.744Z,9.50
2018-07-07T11:59:17.752Z,9.10
2018-07-07T12:00:17.760Z,9.20
2018-07-07T12:01:17.773Z,8.80
2018-07-07T12:02:17.783Z,9.60
2018-07-07T12:03:17.786Z,8.80
2018-07-07T12:04:17.795Z,9.10
2018-07-07T12:05:17.807Z,10.40
2018-07-07T12:06:17.814Z,9.40
2018-07-07T12:07:17.821Z,8.90
2018-07-07T12:08:17.849Z,9.40
2018-07-07T12:09:17.832Z,9.80
2018-07-07T12:10:17.839Z,9.10
2018-07-07T12:11:17.869Z,9.50
2018-07-07T12:12:17.854Z,9.70
2018-07-07T12:13:17.866Z,8.80
2018-07-07T12:14:17.874Z,9.60
2018-07-07T12:15:17.881Z,9.40
2018-07-07T12:16:17.887Z,11.00
2018-07-07T12:17:17.893Z,10.30
2018-07-07T12:18:17.898Z,10.20
2018-07-07T12:19:17.910Z,10.30
2018-07-07T12:20:17.917Z,9.10
2018-07-07T12:21:17.918Z,10.00
2018-07-07T12:22:17.927Z,9.60
2018-07-07T12:23:17.933Z,9.30
2018-07-07T12:24:17.939Z,10.30
2018-07-07T12:25:17.951Z,9.50
2018-07-07T12:26:17.957Z,9.00
2018-07-07T12:27:17.965Z,9.50
2018-07-07T12:28:17.972Z,9.60
2018-07-07T12:29:17.974Z,9.50
2018-07-07T12:30:17.981Z,9.70
2018-07-07T12:31:17.990Z,9.70
2018-07-07T12:32:17.993Z,9.60
2018-07-07T12:33:18.003Z,11.20
2018-07-07T12:34:18.010Z,11.50
2018-07-07T12:35:18.013Z,12.90
2018-07-07T12:36:18.020Z,9.60
2018-07-07T12:37:18.031Z,9.70
2018-07-07T12:38:18.035Z,9.40
2018-07-07T12:39:18.042Z,9.40
2018-07-07T12:40:18.052Z,9.70
2018-07-07T12:41:18.051Z,9.30
2018-07-07T12:42:18.056Z,9.60
2018-07-07T12:43:18.062Z,9.70
2018-07-07T12:44:18.085Z,9.50
2018-07-07T12:45:18.079Z,9.20
2018-07-07T12:46:18.086Z,9.90
2018-07-07T12:47:18.092Z,9.90
2018-07-07T12:48:18.096Z,9.90
2018-07-07T12:49:18.099Z,9.70
2018-07-07T12:50:18.110Z,10.50
2018-07-07T12:51:18.115Z,10.40
2018-07-07T12:52:18.122Z,9.80
2018-07-07T12:53:18.123Z,10.50
2018-07-07T12:54:18.131Z,9.40
2018-07-07T12:55:18.136Z,9.40
2018-07-07T12:56:18.141Z,9.40
2018-07-07T12:57:18.153Z,9.00
2018-07-07T12:58:18.162Z,9.60
2018-07-07T12:59:18.165Z,9.50
2018-07-07T13:00:18.170Z,9.40
2018-07-07T13:01:18.243Z,9.30
2018-07-07T13:02:18.177Z,10.30
2018-07-07T13:03:18.185Z,9.20
2018-07-07T13:04:18.189Z,9.70
2018-07-07T13:05:18.202Z,9.20
2018-07-07T13:06:18.207Z,9.30
2018-07-07T13:07:18.209Z,9.70
2018-07-07T13:08:18.215Z,9.80
2018-07-07T13:09:18.224Z,9.50